This is the latest recevied weather packets stored in our database for station/object KQ4WWD. If no packets are shown the sender has not sent any weather packets the latest 10 day(s).
| Time | Temp. | Humidity | Pressure | Rain* | Wind** | Luminosity | Snow |
|---|---|---|---|---|---|---|---|
| 1777747623 | 20.56° C | 95% | 1011.3 hPa | 1.78 mm | - | 24 W/m² | - |
| 1777747324 | 20° C | 94% | 1011.3 hPa | 1.78 mm | - | 18 W/m² | - |
| 1777747021 | 20° C | 94% | 1011.6 hPa | 3.56 mm | - | 14 W/m² | - |
| 1777746717 | 20° C | 94% | 1011.2 hPa | 6.1 mm | - | 14 W/m² | - |
| 1777746412 | 20° C | 94% | 1010.9 hPa | 13.21 mm | - | 13 W/m² | - |
| 1777746108 | 20° C | 94% | 1011 hPa | 21.59 mm | - | 10 W/m² | - |
| 1777745806 | 20° C | 94% | 1011.5 hPa | 27.69 mm | - | 9 W/m² | - |
| 1777745504 | 20.56° C | 93% | 1011.4 hPa | 19.81 mm | - | 11 W/m² | - |
| 1777745201 | 21.67° C | 91% | 1011.9 hPa | 4.32 mm | - | 7 W/m² | - |
| 1777744898 | 23.33° C | 85% | 1011.3 hPa | 0 mm | - | 10 W/m² | - |
| 1777744597 | 24.44° C | 78% | 1011.4 hPa | 0 mm | - | 6 W/m² | - |
| 1777744293 | 27.22° C | 72% | 1011.4 hPa | 0 mm | - | 2 W/m² | - |
| 1777743991 | 28.33° C | 74% | 1010.4 hPa | 0 mm | - | 20 W/m² | - |
| 1777743687 | 28.33° C | 73% | 1010.3 hPa | 0 mm | - | 37 W/m² | - |
| 1777743384 | 28.89° C | 72% | 1010.3 hPa | 0 mm | - | 40 W/m² | - |
| 1777743082 | 28.89° C | 72% | 1010.3 hPa | 0 mm | - | 52 W/m² | - |
| 1777742779 | 28.89° C | 71% | 1010.4 hPa | 0 mm | - | 72 W/m² | - |
| 1777742476 | 29.44° C | 70% | 1010.3 hPa | 0 mm | - | 103 W/m² | - |
| 1777742171 | 29.44° C | 70% | 1010.1 hPa | 0 mm | - | 101 W/m² | - |
| 1777741868 | 29.44° C | 69% | 1010 hPa | 0 mm | - | 139 W/m² | - |
| 1777741565 | 30° C | 67% | 1010.1 hPa | 0 mm | - | 187 W/m² | - |
| 1777741262 | 30° C | 67% | 1010.1 hPa | 0 mm | - | 265 W/m² | - |
| 1777740959 | 30° C | 66% | 1010.1 hPa | 0 mm | - | 269 W/m² | - |
| 1777740656 | 30.56° C | 66% | 1010 hPa | 0 mm | - | 330 W/m² | - |
| 1777740352 | 30.56° C | 66% | 1010.2 hPa | 0 mm | - | 498 W/m² | - |
* Rain latest hour (hover to see other rain measurements)
** Current wind speed in m/s (hover to see current wind gust speed)